Time;durP1;ratioP1;P1;durP2;ratioP2;P2;SDS_P1;SDS_P2;PMS_P1;PMS_P2;Temp;Humidity;BMP_temperature;BMP_pressure;BME280_temperature;BME280_humidity;BME280_pressure;Samples;Min_cycle;Max_cycle;Signal;HPM_P1;HPM_P2
2024/01/06 00:01:59;;;;;;;;;;;;;;;17.77;64.94;100655.13;7390594;19;1856;-46
2024/01/06 00:04:28;;;;;;;;;;;;;;;17.85;64.65;100653.53;7390086;19;1924;-47
2024/01/06 00:06:56;;;;;;;;;;;;;;;17.84;64.51;100635.75;7388512;19;1771;-46
2024/01/06 00:09:25;;;;;;;;;;;;;;;17.83;64.44;100634.09;7390439;19;1920;-46
2024/01/06 00:11:56;;;;;;;;;;;;;;;17.74;64.57;100610.75;7390138;19;1761;-47
2024/01/06 00:14:24;;;;;;;;;;;;;;;17.63;65.04;100602.81;7374528;19;1759;-46
2024/01/06 00:16:52;;;;;;;;;;;;;;;17.79;64.73;100595.19;7387764;19;1837;-47
2024/01/06 00:19:21;;;;;;;;;;;;;;;18.14;64.05;100598.47;7390008;19;1905;-46
2024/01/06 00:21:49;;;;;;;;;;;;;;;18.24;63.33;100597.56;7388816;19;1870;-47
2024/01/06 00:24:17;;;;;;;;;;;;;;;18.11;63.71;100588.06;7388777;19;1418;-47
2024/01/06 00:26:46;;;;;;;;;;;;;;;18.05;63.81;100597.47;7388129;19;1390;-48
2024/01/06 00:29:17;;;;;;;;;;;;;;;17.92;64.07;100588.78;7389719;19;1771;-47
2024/01/06 00:31:45;;;;;;;;;;;;;;;17.83;64.28;100593.09;7389328;19;1751;-46
2024/01/06 00:34:13;;;;;;;;;;;;;;;17.81;64.44;100595.88;7387177;19;1547;-46
2024/01/06 00:36:49;;;;;;;;;;;;;;;17.80;64.66;100609.38;7393605;19;1897;-46
2024/01/06 00:39:22;;;;;;;;;;;;;;;17.75;64.82;100600.94;7395379;19;1429;-46
2024/01/06 00:41:51;;;;;;;;;;;;;;;17.80;64.67;100633.47;7393954;19;1833;-46
2024/01/06 00:44:22;;;;;;;;;;;;;;;17.70;64.85;100638.75;7395293;19;1260;-46
2024/01/06 00:46:50;;;;;;;;;;;;;;;17.70;65.12;100644.09;7394875;19;1480;-46
2024/01/06 00:49:18;;;;;;;;;;;;;;;17.63;65.05;100649.13;7396297;19;1407;-47
2024/01/06 00:51:47;;;;;;;;;;;;;;;17.57;65.20;100628.25;7396267;19;1680;-46
2024/01/06 00:54:15;;;;;;;;;;;;;;;17.66;65.11;100627.44;7395643;19;1176;-47
2024/01/06 00:56:43;;;;;;;;;;;;;;;17.77;64.86;100623.88;7395761;19;1554;-47
2024/01/06 00:59:12;;;;;;;;;;;;;;;17.68;64.88;100638.03;7396995;19;1021;-46
2024/01/06 01:01:43;;;;;;;;;;;;;;;17.62;64.80;100609.13;7396121;19;1853;-46
2024/01/06 01:04:11;;;;;;;;;;;;;;;17.53;65.22;100620.59;7394614;19;1709;-48
2024/01/06 01:06:40;;;;;;;;;;;;;;;17.46;65.50;100621.13;7392696;19;1430;-47
2024/01/06 01:09:10;;;;;;;;;;;;;;;17.53;65.60;100636.63;7396502;19;1745;-50
2024/01/06 01:11:38;;;;;;;;;;;;;;;17.81;64.77;100616.44;7395565;19;1627;-46
2024/01/06 01:14:07;;;;;;;;;;;;;;;17.98;64.42;100620.38;7381187;19;1651;-46
2024/01/06 01:16:35;;;;;;;;;;;;;;;17.95;64.07;100616.13;7395282;19;1149;-46
2024/01/06 01:19:06;;;;;;;;;;;;;;;17.95;64.40;100631.34;7396023;19;1659;-46
2024/01/06 01:21:34;;;;;;;;;;;;;;;17.93;64.28;100620.78;7394272;19;1293;-46
2024/01/06 01:24:03;;;;;;;;;;;;;;;17.78;64.27;100603.31;7392375;19;1845;-46
2024/01/06 01:26:31;;;;;;;;;;;;;;;17.62;64.67;100606.47;7395364;19;1545;-46
2024/01/06 01:28:59;;;;;;;;;;;;;;;17.65;64.90;100592.84;7394289;19;1723;-47
2024/01/06 01:31:27;;;;;;;;;;;;;;;17.71;64.67;100586.97;7394239;19;1323;-46
2024/01/06 01:33:56;;;;;;;;;;;;;;;17.70;64.86;100588.75;7395186;19;1641;-46
2024/01/06 01:36:27;;;;;;;;;;;;;;;17.65;64.90;100574.13;7392844;19;1752;-46
2024/01/06 01:38:55;;;;;;;;;;;;;;;17.74;64.65;100564.44;7393263;19;935;-46
2024/01/06 01:41:23;;;;;;;;;;;;;;;17.68;64.59;100576.50;7391851;19;2486;-47
2024/01/06 01:43:57;;;;;;;;;;;;;;;17.59;65.04;100572.81;7392803;19;1864;-46
2024/01/06 01:46:26;;;;;;;;;;;;;;;17.87;64.29;100565.97;7393774;19;1584;-46
2024/01/06 01:48:55;;;;;;;;;;;;;;;18.05;63.78;100549.28;7394377;19;1810;-46
2024/01/06 01:51:23;;;;;;;;;;;;;;;18.04;63.88;100574.34;7391117;19;1476;-47
2024/01/06 01:53:55;;;;;;;;;;;;;;;17.93;64.19;100564.59;7394927;19;1253;-46
2024/01/06 01:56:23;;;;;;;;;;;;;;;17.91;64.06;100571.06;7395175;19;1111;-46
2024/01/06 01:58:52;;;;;;;;;;;;;;;17.87;64.13;100571.31;7394432;19;2229;-46
2024/01/06 02:01:20;;;;;;;;;;;;;;;17.79;64.41;100562.25;7393609;19;1964;-47
2024/01/06 02:03:49;;;;;;;;;;;;;;;17.69;64.46;100549.66;7391350;19;2199;-47
2024/01/06 02:06:17;;;;;;;;;;;;;;;17.68;64.60;100555.13;7393956;19;1499;-47
2024/01/06 02:08:45;;;;;;;;;;;;;;;17.64;64.69;100557.22;7392810;19;1510;-46
2024/01/06 02:11:16;;;;;;;;;;;;;;;17.69;64.65;100538.13;7392503;19;1339;-47
2024/01/06 02:13:44;;;;;;;;;;;;;;;17.71;64.46;100536.16;7379067;19;1410;-46
2024/01/06 02:16:13;;;;;;;;;;;;;;;17.73;64.20;100542.22;7391826;19;1747;-46
2024/01/06 02:18:41;;;;;;;;;;;;;;;17.68;64.28;100539.91;7392271;19;1733;-46
2024/01/06 02:21:10;;;;;;;;;;;;;;;17.67;64.50;100532.06;7392473;19;1719;-46
2024/01/06 02:23:41;;;;;;;;;;;;;;;17.83;64.08;100529.75;7392293;19;1842;-47
2024/01/06 02:26:09;;;;;;;;;;;;;;;18.16;63.30;100532.28;7392084;19;1260;-47
2024/01/06 02:28:37;;;;;;;;;;;;;;;18.03;63.39;100530.69;7390500;19;1291;-48
2024/01/06 02:31:06;;;;;;;;;;;;;;;17.97;64.06;100538.44;7392649;19;1215;-46
2024/01/06 02:33:34;;;;;;;;;;;;;;;17.90;64.09;100543.44;7391984;19;1557;-47
2024/01/06 02:36:02;;;;;;;;;;;;;;;17.85;64.24;100535.00;7391572;19;1788;-47
2024/01/06 02:38:30;;;;;;;;;;;;;;;17.70;64.33;100515.72;7393438;19;1546;-46
2024/01/06 02:41:01;;;;;;;;;;;;;;;17.64;64.69;100522.44;7391548;19;1808;-47
2024/01/06 02:43:30;;;;;;;;;;;;;;;17.61;64.76;100505.84;7391658;19;1866;-46
2024/01/06 02:45:58;;;;;;;;;;;;;;;17.58;64.61;100498.06;7392909;19;1259;-46
2024/01/06 02:48:27;;;;;;;;;;;;;;;17.52;64.91;100511.97;7393926;19;1050;-46
2024/01/06 02:50:55;;;;;;;;;;;;;;;17.57;64.96;100501.75;7392441;19;1489;-47
2024/01/06 02:53:23;;;;;;;;;;;;;;;17.69;64.80;100495.31;7392186;19;1438;-47
2024/01/06 02:55:52;;;;;;;;;;;;;;;17.70;64.71;100516.56;7392421;19;1568;-46
2024/01/06 02:58:23;;;;;;;;;;;;;;;17.77;64.26;100511.53;7391311;19;1751;-47
2024/01/06 03:00:51;;;;;;;;;;;;;;;17.84;64.22;100507.38;7392757;19;1378;-47
2024/01/06 03:03:19;;;;;;;;;;;;;;;17.66;64.59;100496.41;7391917;19;1862;-47
2024/01/06 03:05:48;;;;;;;;;;;;;;;17.64;64.53;100510.91;7392268;19;1861;-46
2024/01/06 03:08:17;;;;;;;;;;;;;;;17.59;64.99;100507.81;7390448;19;1766;-47
2024/01/06 03:10:46;;;;;;;;;;;;;;;17.54;65.07;100502.84;7392445;19;1132;-47
2024/01/06 03:13:14;;;;;;;;;;;;;;;17.65;65.08;100497.41;7392138;19;1652;-46
2024/01/06 03:15:45;;;;;;;;;;;;;;;17.70;64.92;100500.50;7377433;19;1846;-47
2024/01/06 03:18:14;;;;;;;;;;;;;;;17.74;64.73;100511.81;7390834;19;1407;-46
2024/01/06 03:20:42;;;;;;;;;;;;;;;17.65;64.47;100493.91;7390890;19;1249;-46
2024/01/06 03:23:10;;;;;;;;;;;;;;;17.48;65.20;100501.53;7390796;19;1847;-47
2024/01/06 03:25:39;;;;;;;;;;;;;;;17.52;65.15;100503.94;7390926;19;1264;-46
2024/01/06 03:28:07;;;;;;;;;;;;;;;17.45;65.15;100499.13;7391192;19;1248;-46
2024/01/06 03:30:35;;;;;;;;;;;;;;;17.57;65.15;100504.41;7391417;19;1410;-46
2024/01/06 03:33:07;;;;;;;;;;;;;;;17.73;64.40;100482.53;7391724;19;1911;-46
2024/01/06 03:35:35;;;;;;;;;;;;;;;17.74;64.43;100478.88;7391241;19;1881;-46
2024/01/06 03:38:03;;;;;;;;;;;;;;;17.79;64.22;100477.50;7390175;19;1795;-47
2024/01/06 03:40:32;;;;;;;;;;;;;;;17.78;64.10;100478.47;7390536;19;1411;-46
2024/01/06 03:43:00;;;;;;;;;;;;;;;17.70;64.24;100462.25;7390715;19;1864;-47
2024/01/06 03:45:28;;;;;;;;;;;;;;;17.59;64.66;100481.06;7391137;19;1501;-47
2024/01/06 03:47:56;;;;;;;;;;;;;;;17.60;64.49;100470.22;7390017;19;1573;-47
2024/01/06 03:50:27;;;;;;;;;;;;;;;17.55;64.93;100480.47;7389884;19;1758;-46
2024/01/06 03:52:56;;;;;;;;;;;;;;;17.60;64.95;100472.06;7389874;19;1447;-46
2024/01/06 03:55:25;;;;;;;;;;;;;;;17.63;64.79;100483.31;7388745;19;1786;-46
2024/01/06 03:57:53;;;;;;;;;;;;;;;17.67;64.80;100492.78;7389132;19;1350;-46
2024/01/06 04:00:21;;;;;;;;;;;;;;;17.62;64.76;100489.66;7388762;19;1429;-46
2024/01/06 04:02:50;;;;;;;;;;;;;;;17.65;64.87;100488.56;7389330;19;1838;-46
2024/01/06 04:05:18;;;;;;;;;;;;;;;18.15;63.48;100493.97;7391503;19;1690;-46
2024/01/06 04:07:49;;;;;;;;;;;;;;;18.25;63.04;100494.84;7390666;19;1842;-46
2024/01/06 04:10:18;;;;;;;;;;;;;;;18.32;62.86;100503.16;7391027;19;1510;-47
2024/01/06 04:12:46;;;;;;;;;;;;;;;18.26;62.87;100504.59;7398289;19;1805;-47
2024/01/06 04:15:14;;;;;;;;;;;;;;;18.18;63.03;100501.72;7383934;19;1591;-46
2024/01/06 04:17:43;;;;;;;;;;;;;;;18.22;63.26;100511.19;7398086;19;1568;-46
2024/01/06 04:20:12;;;;;;;;;;;;;;;18.26;63.10;100517.09;7397665;19;1469;-47
2024/01/06 04:22:41;;;;;;;;;;;;;;;18.24;62.97;100508.34;7397792;19;1592;-47
2024/01/06 04:25:12;;;;;;;;;;;;;;;18.24;63.04;100503.00;7396410;19;1283;-47
2024/01/06 04:27:40;;;;;;;;;;;;;;;18.28;62.95;100524.03;7397261;19;1854;-47
2024/01/06 04:30:09;;;;;;;;;;;;;;;18.33;63.06;100512.06;7396577;19;1571;-46
2024/01/06 04:32:37;;;;;;;;;;;;;;;18.34;62.88;100511.91;7391690;19;1190;-46
2024/01/06 04:35:06;;;;;;;;;;;;;;;18.36;62.98;100504.56;7395856;19;1323;-47
2024/01/06 04:37:35;;;;;;;;;;;;;;;18.28;62.80;100507.97;7394461;19;1493;-47
2024/01/06 04:40:03;;;;;;;;;;;;;;;18.32;62.94;100510.34;7396758;19;1401;-47
2024/01/06 04:42:34;;;;;;;;;;;;;;;18.27;62.87;100513.44;7396823;19;1363;-47
2024/01/06 04:45:02;;;;;;;;;;;;;;;18.22;63.14;100511.19;7394340;19;1855;-46
2024/01/06 04:47:31;;;;;;;;;;;;;;;18.31;63.13;100514.03;7391415;19;1389;-46
2024/01/06 04:49:59;;;;;;;;;;;;;;;18.48;62.70;100516.00;7391508;19;1676;-47
2024/01/06 04:52:27;;;;;;;;;;;;;;;18.72;61.82;100507.63;7394941;19;1680;-46
2024/01/06 04:54:56;;;;;;;;;;;;;;;18.80;61.54;100502.44;7396161;19;1287;-47
2024/01/06 04:57:24;;;;;;;;;;;;;;;18.84;61.41;100511.00;7394318;19;1649;-47
2024/01/06 04:59:55;;;;;;;;;;;;;;;18.85;61.22;100507.34;7395375;19;1452;-47
2024/01/06 05:02:24;;;;;;;;;;;;;;;18.95;60.83;100502.00;7395388;19;1744;-47
2024/01/06 05:04:52;;;;;;;;;;;;;;;18.90;60.70;100504.25;7391683;19;1838;-47
2024/01/06 05:07:20;;;;;;;;;;;;;;;18.85;60.63;100485.94;7390828;19;1750;-47
2024/01/06 05:09:49;;;;;;;;;;;;;;;18.81;60.73;100484.53;7394848;19;1657;-47
2024/01/06 05:12:17;;;;;;;;;;;;;;;18.90;60.41;100496.22;7391403;19;1892;-47
2024/01/06 05:14:45;;;;;;;;;;;;;;;18.85;60.56;100502.00;7379971;19;1575;-47
2024/01/06 05:17:16;;;;;;;;;;;;;;;18.85;59.98;100499.31;7392418;19;1700;-46
2024/01/06 05:19:45;;;;;;;;;;;;;;;18.95;60.28;100523.44;7393605;19;1380;-47
2024/01/06 05:22:13;;;;;;;;;;;;;;;18.91;60.35;100516.66;7387931;19;1821;-47
2024/01/06 05:24:41;;;;;;;;;;;;;;;18.96;60.08;100517.94;7391168;19;1921;-46
2024/01/06 05:27:10;;;;;;;;;;;;;;;18.91;60.20;100528.22;7393140;19;1477;-47
2024/01/06 05:29:38;;;;;;;;;;;;;;;18.98;60.27;100518.66;7392950;19;1223;-46
2024/01/06 05:32:07;;;;;;;;;;;;;;;18.99;60.12;100520.31;7392770;19;1744;-46
2024/01/06 05:34:37;;;;;;;;;;;;;;;19.00;60.19;100524.72;7392569;19;1482;-47
2024/01/06 05:37:06;;;;;;;;;;;;;;;18.95;60.32;100520.75;7391601;19;1679;-47
2024/01/06 05:39:35;;;;;;;;;;;;;;;19.01;60.11;100521.03;7394319;19;1497;-47
2024/01/06 05:42:03;;;;;;;;;;;;;;;18.99;60.29;100514.13;7393810;19;1636;-47
2024/01/06 05:44:31;;;;;;;;;;;;;;;19.02;60.10;100520.06;7390468;19;1838;-47
2024/01/06 05:47:00;;;;;;;;;;;;;;;19.03;60.25;100511.00;7391641;19;1385;-48
2024/01/06 05:49:28;;;;;;;;;;;;;;;19.10;60.19;100516.66;7391991;19;1815;-47
2024/01/06 05:51:59;;;;;;;;;;;;;;;19.10;60.17;100526.53;7392602;19;1219;-47
2024/01/06 05:54:27;;;;;;;;;;;;;;;19.03;60.25;100529.78;7389085;19;1229;-47
2024/01/06 05:56:56;;;;;;;;;;;;;;;19.04;60.12;100520.75;7390108;19;1595;-47
2024/01/06 05:59:24;;;;;;;;;;;;;;;19.05;60.09;100514.41;7393497;19;1623;-47
2024/01/06 06:01:52;;;;;;;;;;;;;;;19.04;60.16;100504.69;7393733;19;1019;-46
2024/01/06 06:04:21;;;;;;;;;;;;;;;19.05;60.07;100503.69;7388848;19;1917;-46
2024/01/06 06:06:49;;;;;;;;;;;;;;;19.08;60.06;100514.13;7391791;19;1743;-47
2024/01/06 06:09:21;;;;;;;;;;;;;;;19.07;60.23;100490.97;7392174;19;1921;-46
2024/01/06 06:11:50;;;;;;;;;;;;;;;19.09;60.28;100485.47;7389700;19;1801;-47
2024/01/06 06:14:18;;;;;;;;;;;;;;;19.10;60.41;100495.22;7391802;19;1558;-46
2024/01/06 06:16:47;;;;;;;;;;;;;;;19.11;60.06;100474.63;7378442;19;1618;-47
2024/01/06 06:19:17;;;;;;;;;;;;;;;19.08;60.07;100486.50;7392055;19;1846;-47
2024/01/06 06:21:45;;;;;;;;;;;;;;;19.12;59.99;100478.97;7391847;19;1539;-47
2024/01/06 06:24:14;;;;;;;;;;;;;;;19.07;60.22;100490.97;7391064;19;1859;-47
2024/01/06 06:26:45;;;;;;;;;;;;;;;19.13;60.08;100491.41;7391836;19;1408;-47
2024/01/06 06:29:13;;;;;;;;;;;;;;;19.17;60.13;100490.97;7390213;19;1743;-47
2024/01/06 06:31:42;;;;;;;;;;;;;;;19.08;60.32;100478.44;7386827;19;1385;-47
2024/01/06 06:34:11;;;;;;;;;;;;;;;18.92;59.99;100475.47;7382912;19;1467;-50
2024/01/06 06:36:39;;;;;;;;;;;;;;;18.93;60.11;100478.03;7389638;19;1461;-47
2024/01/06 06:39:08;;;;;;;;;;;;;;;19.00;60.10;100491.69;7387152;19;1566;-47
2024/01/06 06:41:36;;;;;;;;;;;;;;;19.22;59.89;100482.53;7390258;19;1490;-46
2024/01/06 06:44:07;;;;;;;;;;;;;;;19.36;59.64;100482.06;7390886;19;1849;-45
2024/01/06 06:46:35;;;;;;;;;;;;;;;19.51;59.42;100487.78;7390734;19;1604;-46
2024/01/06 06:49:04;;;;;;;;;;;;;;;19.47;59.31;100486.41;7390821;19;1465;-46
2024/01/06 06:51:32;;;;;;;;;;;;;;;19.55;59.28;100493.72;7386160;19;1577;-46
2024/01/06 06:54:01;;;;;;;;;;;;;;;19.53;59.23;100498.38;7389139;19;1724;-46
2024/01/06 06:56:29;;;;;;;;;;;;;;;19.50;59.65;100496.84;7388676;19;1120;-46
2024/01/06 06:58:58;;;;;;;;;;;;;;;19.46;59.69;100501.66;7387786;19;1845;-46
2024/01/06 07:01:28;;;;;;;;;;;;;;;19.51;59.67;100492.31;7390316;19;1485;-46
2024/01/06 07:03:57;;;;;;;;;;;;;;;19.77;60.31;100493.38;7390527;19;1907;-42
2024/01/06 07:06:26;;;;;;;;;;;;;;;18.90;61.57;100494.41;7390417;19;1553;-42
2024/01/06 07:08:54;;;;;;;;;;;;;;;18.55;62.93;100505.63;7390378;19;1793;-43
2024/01/06 07:11:23;;;;;;;;;;;;;;;18.44;63.42;100525.31;7387220;19;1636;-44
2024/01/06 07:13:52;;;;;;;;;;;;;;;18.34;63.60;100511.91;7387537;19;1493;-42
2024/01/06 07:16:20;;;;;;;;;;;;;;;18.29;63.58;100496.25;7374617;19;1758;-42
2024/01/06 07:18:51;;;;;;;;;;;;;;;18.35;64.13;100515.44;7390445;19;1841;-42
2024/01/06 07:21:19;;;;;;;;;;;;;;;18.46;63.92;100515.31;7388804;19;1399;-43
2024/01/06 07:23:48;;;;;;;;;;;;;;;18.54;63.44;100503.91;7385281;19;1853;-43
2024/01/06 07:26:17;;;;;;;;;;;;;;;18.42;63.22;100479.97;7385832;19;1649;-43
2024/01/06 07:28:45;;;;;;;;;;;;;;;18.32;63.27;100479.06;7384347;19;1479;-43
2024/01/06 07:31:14;;;;;;;;;;;;;;;18.36;63.01;100474.28;7389281;19;1556;-44
2024/01/06 07:33:42;;;;;;;;;;;;;;;18.29;62.50;100456.09;7385490;19;1336;-43
2024/01/06 07:36:13;;;;;;;;;;;;;;;18.47;61.32;100474.19;7386317;19;1493;-43
2024/01/06 07:38:42;;;;;;;;;;;;;;;18.36;61.96;100485.00;7388825;19;1427;-43
2024/01/06 07:41:10;;;;;;;;;;;;;;;18.33;62.57;100469.22;7387215;19;1704;-43
2024/01/06 07:43:39;;;;;;;;;;;;;;;18.26;63.30;100487.66;7383227;19;1343;-44
2024/01/06 07:46:07;;;;;;;;;;;;;;;18.34;62.68;100487.81;7391197;19;1851;-43
2024/01/06 07:48:36;;;;;;;;;;;;;;;18.29;63.37;100492.75;7398201;19;1551;-43
2024/01/06 07:51:04;;;;;;;;;;;;;;;18.41;63.04;100480.09;7397671;19;1083;-42
2024/01/06 07:53:35;;;;;;;;;;;;;;;18.44;63.22;100479.78;7391393;19;1581;-43
2024/01/06 07:56:03;;;;;;;;;;;;;;;18.37;63.59;100471.47;7395498;19;1215;-43
2024/01/06 07:58:32;;;;;;;;;;;;;;;18.29;63.96;100474.84;7394647;19;1359;-43
2024/01/06 08:01:01;;;;;;;;;;;;;;;18.31;63.87;100471.19;7392347;19;1718;-43
2024/01/06 08:03:29;;;;;;;;;;;;;;;18.38;64.06;100472.31;7395425;19;1439;-43
2024/01/06 08:05:58;;;;;;;;;;;;;;;18.39;63.97;100463.31;7392361;19;1855;-44
2024/01/06 08:08:26;;;;;;;;;;;;;;;18.42;63.92;100474.59;7391797;19;1402;-43
2024/01/06 08:10:57;;;;;;;;;;;;;;;18.47;63.71;100495.59;7390305;19;1672;-44
2024/01/06 08:13:25;;;;;;;;;;;;;;;18.40;64.03;100491.75;7395508;19;1206;-43
2024/01/06 08:15:54;;;;;;;;;;;;;;;18.12;65.00;100494.22;7377509;19;1454;-44
2024/01/06 08:18:22;;;;;;;;;;;;;;;17.92;65.05;100490.66;7392454;19;1406;-44
2024/01/06 08:20:50;;;;;;;;;;;;;;;17.80;65.02;100465.78;7396639;19;1669;-45
2024/01/06 08:23:20;;;;;;;;;;;;;;;17.92;64.95;100474.59;7395333;19;1283;-44
2024/01/06 08:25:48;;;;;;;;;;;;;;;18.12;64.94;100480.84;7392523;19;1878;-44
2024/01/06 08:28:21;;;;;;;;;;;;;;;18.20;64.63;100472.97;7390639;19;1251;-43
2024/01/06 08:30:49;;;;;;;;;;;;;;;18.32;64.36;100464.84;7391914;19;1456;-44
2024/01/06 08:33:17;;;;;;;;;;;;;;;18.30;64.46;100446.25;7392953;19;963;-45
2024/01/06 08:35:46;;;;;;;;;;;;;;;18.38;64.75;100445.56;7390432;19;1184;-46
2024/01/06 08:38:14;;;;;;;;;;;;;;;18.37;64.98;100444.72;7391666;19;1645;-46
2024/01/06 08:40:44;;;;;;;;;;;;;;;18.28;65.32;100449.09;7389799;19;2438;-45
2024/01/06 08:43:12;;;;;;;;;;;;;;;18.13;65.88;100447.78;7389059;19;1426;-45
2024/01/06 08:45:43;;;;;;;;;;;;;;;17.85;66.29;100439.53;7390539;19;1853;-45
2024/01/06 08:48:12;;;;;;;;;;;;;;;17.82;66.13;100454.97;7392213;19;1825;-45
2024/01/06 08:50:40;;;;;;;;;;;;;;;17.89;65.99;100443.63;7394117;19;1552;-45
2024/01/06 08:53:08;;;;;;;;;;;;;;;18.07;65.31;100443.81;7393776;19;1828;-45
2024/01/06 08:55:37;;;;;;;;;;;;;;;18.20;65.26;100434.69;7389510;19;1953;-45
2024/01/06 08:58:05;;;;;;;;;;;;;;;18.15;65.38;100415.53;7381915;19;1903;-45
2024/01/06 09:00:33;;;;;;;;;;;;;;;18.07;64.96;100435.78;7386955;19;1537;-46
2024/01/06 09:03:04;;;;;;;;;;;;;;;17.85;66.04;100420.81;7388750;19;1362;-46
2024/01/06 09:05:33;;;;;;;;;;;;;;;17.83;66.00;100430.78;7389495;19;1858;-46
2024/01/06 09:08:03;;;;;;;;;;;;;;;18.10;65.19;100421.28;7389020;19;1684;-46
2024/01/06 09:10:31;;;;;;;;;;;;;;;18.06;65.17;100414.50;7393475;19;1517;-46
2024/01/06 09:13:00;;;;;;;;;;;;;;;18.03;65.25;100406.78;7394668;19;1896;-46
2024/01/06 09:15:28;;;;;;;;;;;;;;;18.11;65.17;100412.28;7376372;19;1846;-47
2024/01/06 09:17:56;;;;;;;;;;;;;;;18.21;64.64;100398.91;7390440;19;1624;-46
2024/01/06 09:20:27;;;;;;;;;;;;;;;18.26;64.67;100391.28;7386267;19;1662;-47
2024/01/06 09:22:56;;;;;;;;;;;;;;;18.22;64.59;100390.75;7392998;19;1328;-46
2024/01/06 09:25:25;;;;;;;;;;;;;;;18.12;64.95;100376.50;7389149;19;1851;-47
2024/01/06 09:27:53;;;;;;;;;;;;;;;18.16;64.88;100377.06;7390285;19;1798;-46
2024/01/06 09:30:22;;;;;;;;;;;;;;;18.17;64.56;100390.31;7391566;19;1390;-46
2024/01/06 09:32:50;;;;;;;;;;;;;;;18.14;64.74;100384.38;7388916;19;1441;-47
2024/01/06 09:35:18;;;;;;;;;;;;;;;18.12;64.37;100376.50;7386707;19;1563;-47
2024/01/06 09:37:49;;;;;;;;;;;;;;;18.13;64.81;100367.50;7390048;19;1300;-44
2024/01/06 09:40:23;;;;;;;;;;;;;;;18.10;64.31;100354.38;7388876;19;1509;-44
2024/01/06 09:42:51;;;;;;;;;;;;;;;18.14;64.36;100353.13;7388525;19;1489;-44
2024/01/06 09:45:20;;;;;;;;;;;;;;;18.14;64.22;100361.13;7389305;19;1852;-46
2024/01/06 09:47:51;;;;;;;;;;;;;;;18.18;63.52;100354.53;7392227;19;1924;-47
2024/01/06 09:50:21;;;;;;;;;;;;;;;18.31;64.04;100354.25;7391427;19;1763;-45
2024/01/06 09:52:54;;;;;;;;;;;;;;;18.36;64.29;100343.13;7392546;19;1606;-45
2024/01/06 09:55:25;;;;;;;;;;;;;;;18.40;64.27;100333.81;7390100;19;1783;-45
2024/01/06 09:57:54;;;;;;;;;;;;;;;18.55;64.70;100348.47;7391698;19;1477;-45
2024/01/06 10:00:23;;;;;;;;;;;;;;;18.49;64.90;100330.28;7391667;19;1719;-45
2024/01/06 10:02:51;;;;;;;;;;;;;;;18.46;65.12;100328.75;7390190;19;1545;-43
2024/01/06 10:05:20;;;;;;;;;;;;;;;18.57;65.72;100319.72;7387233;19;1890;-44
2024/01/06 10:07:49;;;;;;;;;;;;;;;18.61;65.79;100318.44;7388835;19;1632;-44
2024/01/06 10:10:20;;;;;;;;;;;;;;;18.43;66.65;100304.94;7388853;19;1723;-44
2024/01/06 10:12:49;;;;;;;;;;;;;;;18.32;67.33;100309.59;7387535;19;1426;-45
2024/01/06 10:15:17;;;;;;;;;;;;;;;18.28;67.78;100288.47;7387935;19;1560;-45
2024/01/06 10:17:46;;;;;;;;;;;;;;;18.15;68.01;100285.25;7387596;19;1504;-45
2024/01/06 10:20:15;;;;;;;;;;;;;;;18.33;67.41;100293.41;7389131;19;1796;-44
2024/01/06 10:22:44;;;;;;;;;;;;;;;18.62;67.03;100288.00;7390073;19;1645;-44
2024/01/06 10:25:13;;;;;;;;;;;;;;;18.56;66.94;100277.88;7387686;19;1830;-44
2024/01/06 10:27:44;;;;;;;;;;;;;;;18.44;68.05;100292.38;7390966;19;1602;-44
2024/01/06 10:30:14;;;;;;;;;;;;;;;18.28;68.63;100287.63;7391490;19;1287;-44
2024/01/06 10:32:42;;;;;;;;;;;;;;;18.50;68.26;100278.41;7386535;19;1709;-46
2024/01/06 10:35:11;;;;;;;;;;;;;;;18.75;67.44;100242.13;7391241;19;1336;-45
2024/01/06 10:37:40;;;;;;;;;;;;;;;18.81;67.45;100248.78;7391127;19;1557;-46
2024/01/06 10:40:13;;;;;;;;;;;;;;;18.57;68.52;100236.69;7392620;19;1548;-45
2024/01/06 10:42:44;;;;;;;;;;;;;;;18.49;68.84;100237.41;7390459;19;1579;-44
2024/01/06 10:45:13;;;;;;;;;;;;;;;18.83;68.26;100234.25;7391049;19;1850;-45
2024/01/06 10:47:42;;;;;;;;;;;;;;;19.07;67.48;100225.66;7388907;19;1558;-45
2024/01/06 10:50:10;;;;;;;;;;;;;;;19.11;67.23;100204.78;7390800;19;1254;-47
2024/01/06 10:52:40;;;;;;;;;;;;;;;18.92;68.02;100219.13;7388792;19;1672;-44
2024/01/06 10:55:08;;;;;;;;;;;;;;;18.77;68.67;100217.88;7389197;19;1503;-46
2024/01/06 10:57:37;;;;;;;;;;;;;;;18.70;68.94;100233.69;7390323;19;1856;-45
2024/01/06 11:00:09;;;;;;;;;;;;;;;19.02;68.16;100209.19;7390114;19;1246;-45
2024/01/06 11:02:38;;;;;;;;;;;;;;;19.23;67.25;100200.06;7390636;19;1607;-46
2024/01/06 11:05:10;;;;;;;;;;;;;;;19.03;68.22;100199.31;7389351;19;1842;-45
2024/01/06 11:07:39;;;;;;;;;;;;;;;18.86;68.94;100196.44;7387819;19;1396;-44
2024/01/06 11:10:11;;;;;;;;;;;;;;;18.81;69.12;100200.56;7387995;19;1427;-45
2024/01/06 11:12:40;;;;;;;;;;;;;;;18.91;68.75;100179.91;7389475;19;1503;-45
2024/01/06 11:15:14;;;;;;;;;;;;;;;19.23;67.94;100192.00;7390386;19;1545;-45
2024/01/06 11:17:58;;;;;;;;;;;;;;;19.05;68.56;100181.25;7389731;19;1445;-45
2024/01/06 11:20:26;;;;;;;;;;;;;;;18.82;69.88;100192.38;7388787;19;1580;-46
2024/01/06 11:22:56;;;;;;;;;;;;;;;18.76;69.86;100189.41;7389756;19;1473;-47
2024/01/06 11:25:25;;;;;;;;;;;;;;;18.80;69.11;100198.84;7389115;19;1873;-44
2024/01/06 11:27:57;;;;;;;;;;;;;;;19.24;67.96;100201.75;7389927;19;1363;-45
2024/01/06 11:30:29;;;;;;;;;;;;;;;18.92;69.05;100181.63;7390510;19;1837;-44
2024/01/06 11:32:58;;;;;;;;;;;;;;;18.74;69.99;100172.63;7388565;19;1565;-47
2024/01/06 11:35:29;;;;;;;;;;;;;;;18.71;70.20;100180.97;7389723;19;1908;-43
2024/01/06 11:37:58;;;;;;;;;;;;;;;18.82;69.80;100175.44;7389780;19;1556;-45
2024/01/06 11:40:25;;;;;;;;;;;;;;;19.01;69.16;100180.72;7390168;19;1396;-46
2024/01/06 11:42:59;;;;;;;;;;;;;;;18.84;70.39;100173.47;7388849;19;1908;-46
2024/01/06 11:45:31;;;;;;;;;;;;;;;18.69;70.29;100176.59;7388909;19;1850;-45
2024/01/06 11:48:02;;;;;;;;;;;;;;;18.81;70.42;100179.13;7388945;19;1312;-45
2024/01/06 11:50:32;;;;;;;;;;;;;;;18.97;70.09;100157.88;7389329;19;1572;-45
2024/01/06 11:53:00;;;;;;;;;;;;;;;19.19;69.37;100171.84;7388612;19;1592;-46
2024/01/06 11:55:31;;;;;;;;;;;;;;;19.30;69.36;100174.34;7388793;19;1794;-45
2024/01/06 11:58:02;;;;;;;;;;;;;;;19.33;69.37;100163.28;7388422;19;1485;-47
2024/01/06 12:00:33;;;;;;;;;;;;;;;19.12;69.94;100160.03;7389250;19;1755;-45
2024/01/06 12:03:03;;;;;;;;;;;;;;;18.91;70.78;100160.34;7388539;19;1612;-46
2024/01/06 12:05:31;;;;;;;;;;;;;;;18.77;71.33;100150.94;7387330;19;1881;-46
2024/01/06 12:08:00;;;;;;;;;;;;;;;18.98;70.24;100145.31;7388250;19;2028;-44
2024/01/06 12:10:30;;;;;;;;;;;;;;;19.10;70.13;100162.91;7389135;19;1711;-45
2024/01/06 12:12:59;;;;;;;;;;;;;;;19.28;69.71;100141.47;7388724;19;1860;-45
2024/01/06 12:15:28;;;;;;;;;;;;;;;19.42;69.18;100165.06;7389872;19;1697;-46
2024/01/06 12:17:59;;;;;;;;;;;;;;;19.38;69.45;100171.72;7387314;19;1736;-45
2024/01/06 12:20:28;;;;;;;;;;;;;;;19.21;70.05;100161.81;7386104;19;1375;-47
2024/01/06 12:22:57;;;;;;;;;;;;;;;19.15;70.17;100173.16;7388172;19;1268;-43
2024/01/06 12:25:26;;;;;;;;;;;;;;;19.52;69.48;100177.53;7386708;19;1183;-42
2024/01/06 12:27:55;;;;;;;;;;;;;;;19.61;68.58;100166.72;7389289;19;1114;-43
2024/01/06 12:30:24;;;;;;;;;;;;;;;19.63;68.81;100180.84;7387242;19;1386;-44
2024/01/06 12:32:53;;;;;;;;;;;;;;;19.70;68.42;100181.06;7392959;19;1754;-44
2024/01/06 12:35:24;;;;;;;;;;;;;;;19.68;68.93;100173.19;7392913;19;1556;-45
2024/01/06 12:37:53;;;;;;;;;;;;;;;19.74;69.54;100178.97;7395027;19;1546;-43
2024/01/06 12:40:22;;;;;;;;;;;;;;;19.82;69.12;100190.59;7389644;19;1504;-45
2024/01/06 12:42:50;;;;;;;;;;;;;;;19.56;69.54;100169.06;7391565;19;1665;-43
2024/01/06 12:45:19;;;;;;;;;;;;;;;19.35;70.28;100182.75;7389971;19;1475;-45
2024/01/06 12:47:47;;;;;;;;;;;;;;;19.56;70.14;100182.47;7392446;19;1867;-45
2024/01/06 12:50:15;;;;;;;;;;;;;;;19.39;70.31;100194.84;7394254;19;1294;-45
2024/01/06 12:52:46;;;;;;;;;;;;;;;19.48;70.97;100202.00;7392619;19;1557;-45
2024/01/06 12:55:15;;;;;;;;;;;;;;;19.77;70.72;100194.75;7392834;19;1921;-45
2024/01/06 12:57:44;;;;;;;;;;;;;;;19.87;70.54;100182.06;7393658;19;1411;-44